Time;durP1;ratioP1;P1;durP2;ratioP2;P2;SDS_P1;SDS_P2;PMS_P1;PMS_P2;Temp;Humidity;BMP_temperature;BMP_pressure;BME280_temperature;BME280_humidity;BME280_pressure;Samples;Min_cycle;Max_cycle;Signal;HPM_P1;HPM_P2
2022/11/15 00:02:06;;;;;;;18.15;10.32;;;;;;;19.58;44.56;100928.91;5085169;28;20186;-71
2022/11/15 00:04:50;;;;;;;18.30;10.05;;;;;;;19.65;44.54;100922.91;5085492;28;20172;-71
2022/11/15 00:07:34;;;;;;;19.77;10.10;;;;;;;19.58;44.63;100928.09;5086381;28;20127;-70
2022/11/15 00:10:18;;;;;;;16.92;10.27;;;;;;;19.65;44.32;100926.38;5084938;28;20485;-71
2022/11/15 00:13:10;;;;;;;18.65;10.10;;;;;;;19.46;44.82;100930.28;5089397;28;20137;-71
2022/11/15 00:15:58;;;;;;;19.20;11.73;;;;;;;19.52;44.72;100934.03;5084939;28;20134;-70
2022/11/15 00:18:42;;;;;;;17.05;10.18;;;;;;;19.54;44.66;100934.69;5081042;28;20109;-70
2022/11/15 00:21:27;;;;;;;19.15;10.30;;;;;;;19.51;44.80;100919.16;5085910;28;20780;-71
2022/11/15 00:24:11;;;;;;;18.10;10.43;;;;;;;19.53;44.62;100923.28;5086674;28;20124;-70
2022/11/15 00:26:57;;;;;;;18.08;9.98;;;;;;;19.59;44.67;100927.09;5084444;28;20136;-71
2022/11/15 00:29:43;;;;;;;18.85;10.48;;;;;;;19.55;44.55;100921.31;5090395;28;20050;-71
2022/11/15 00:32:31;;;;;;;15.23;9.30;;;;;;;19.56;44.63;100928.25;5093472;28;20050;-71
2022/11/15 00:35:15;;;;;;;19.65;10.95;;;;;;;19.50;44.74;100922.81;5088908;28;20078;-71
2022/11/15 00:38:00;;;;;;;17.08;10.73;;;;;;;19.46;44.69;100911.78;5091764;28;20042;-70
2022/11/15 00:40:44;;;;;;;18.27;10.98;;;;;;;19.45;44.84;100907.50;5092788;28;20121;-71
2022/11/15 00:43:29;;;;;;;17.55;10.20;;;;;;;19.50;44.80;100901.69;5090900;28;20474;-70
2022/11/15 00:46:13;;;;;;;15.23;9.70;;;;;;;19.37;45.07;100890.88;5091294;28;20490;-70
2022/11/15 00:48:57;;;;;;;18.05;9.70;;;;;;;19.40;44.75;100886.09;5088449;28;20149;-71
2022/11/15 00:51:41;;;;;;;17.55;10.05;;;;;;;19.43;44.89;100879.63;5089711;28;20050;-71
2022/11/15 00:54:25;;;;;;;18.33;11.05;;;;;;;19.47;44.84;100886.19;5080196;28;20161;-71
2022/11/15 00:57:09;;;;;;;16.77;10.40;;;;;;;19.46;44.76;100888.00;5090129;28;20150;-71
2022/11/15 00:59:53;;;;;;;18.15;10.45;;;;;;;19.51;44.74;100888.28;5089360;28;20101;-71
2022/11/15 01:02:37;;;;;;;17.90;10.20;;;;;;;19.41;44.88;100878.97;5085715;28;20184;-71
2022/11/15 01:05:22;;;;;;;16.60;9.60;;;;;;;19.39;44.97;100880.94;5095340;28;20593;-71
2022/11/15 01:08:11;;;;;;;17.35;9.40;;;;;;;19.34;45.04;100870.91;5092693;28;20039;-71
2022/11/15 01:11:00;;;;;;;16.13;9.20;;;;;;;19.36;45.06;100866.28;5093209;28;20058;-71
2022/11/15 01:13:44;;;;;;;14.82;9.40;;;;;;;19.47;44.77;100867.69;5088429;28;20047;-70
2022/11/15 01:16:28;;;;;;;15.80;9.80;;;;;;;19.43;44.92;100879.63;5092058;28;20046;-71
2022/11/15 01:19:12;;;;;;;18.90;9.38;;;;;;;19.38;45.08;100879.31;5095211;28;20050;-71
2022/11/15 01:21:56;;;;;;;15.40;9.88;;;;;;;19.43;44.85;100872.53;5091038;28;20097;-70
2022/11/15 01:24:40;;;;;;;15.60;9.63;;;;;;;19.35;45.10;100871.75;5092734;28;21133;-71
2022/11/15 01:27:25;;;;;;;17.50;9.48;;;;;;;19.36;44.98;100868.09;5091673;28;20042;-71
2022/11/15 01:30:09;;;;;;;16.27;9.48;;;;;;;19.36;44.94;100847.78;5088849;28;20108;-71
2022/11/15 01:32:53;;;;;;;14.15;9.45;;;;;;;19.36;44.84;100844.34;5086849;28;20136;-71
2022/11/15 01:35:39;;;;;;;17.00;10.43;;;;;;;19.45;44.86;100856.50;5085613;28;20100;-71
2022/11/15 01:38:23;;;;;;;16.48;9.18;;;;;;;19.39;45.00;100849.25;5083592;28;20054;-71
2022/11/15 01:41:16;;;;;;;15.23;9.38;;;;;;;19.39;44.92;100852.75;5087696;28;20135;-71
2022/11/15 01:44:39;;;;;;;17.00;9.45;;;;;;;19.40;44.90;100849.13;5085577;28;20063;-70
2022/11/15 01:47:25;;;;;;;15.43;9.65;;;;;;;19.42;44.90;100844.47;5089022;28;20051;-71
2022/11/15 01:50:13;;;;;;;17.27;10.07;;;;;;;19.39;45.37;100841.34;5083931;28;20138;-70
2022/11/15 01:52:58;;;;;;;15.15;9.60;;;;;;;19.28;45.20;100830.22;5086548;28;20045;-70
2022/11/15 01:55:42;;;;;;;15.38;9.45;;;;;;;19.23;45.19;100824.63;5081545;28;20045;-71
2022/11/15 01:58:26;;;;;;;15.55;9.20;;;;;;;19.29;45.11;100821.28;5086340;28;20078;-71
2022/11/15 02:01:10;;;;;;;14.23;8.57;;;;;;;19.25;45.24;100822.66;5085567;28;20123;-70
2022/11/15 02:04:00;;;;;;;15.98;9.10;;;;;;;19.32;44.98;100817.47;5086993;28;20117;-71
2022/11/15 02:06:46;;;;;;;16.10;9.32;;;;;;;19.36;44.98;100818.75;5085606;28;21955;-71
2022/11/15 02:09:30;;;;;;;17.10;9.55;;;;;;;19.36;44.99;100815.28;5083845;28;20042;-71
2022/11/15 02:12:18;;;;;;;17.15;10.88;;;;;;;19.30;45.07;100824.75;5085263;28;20124;-71
2022/11/15 02:15:04;;;;;;;15.25;9.13;;;;;;;19.32;45.17;100825.38;5087084;28;20051;-70
2022/11/15 02:18:13;;;;;;;13.30;8.07;;;;;;;19.42;44.97;100827.81;5088348;28;20722;-72
2022/11/15 02:21:17;;;;;;;14.48;7.85;;;;;;;19.41;44.92;100820.88;5086515;28;20047;-70
2022/11/15 02:24:28;;;;;;;14.23;8.68;;;;;;;19.30;45.07;100819.47;5086551;28;20093;-71
2022/11/15 02:27:22;;;;;;;14.73;7.88;;;;;;;19.32;45.00;100813.00;5089306;28;20524;-71
2022/11/15 02:30:22;;;;;;;13.68;8.20;;;;;;;19.40;44.91;100808.69;5086126;28;20585;-71
2022/11/15 02:33:24;;;;;;;14.85;9.07;;;;;;;19.39;44.97;100797.28;5087200;28;20461;-69
2022/11/15 02:36:14;;;;;;;13.32;8.43;;;;;;;19.30;45.07;100798.34;5084837;28;20058;-68
2022/11/15 02:39:39;;;;;;;13.23;8.27;;;;;;;19.39;45.00;100791.16;5092669;28;20050;-69
2022/11/15 02:45:35;;;;;;;15.73;8.95;;;;;;;19.31;45.05;100790.25;5083430;28;20135;-69
2022/11/15 02:48:22;;;;;;;15.27;8.25;;;;;;;19.37;44.98;100793.16;5086949;28;20078;-68
2022/11/15 02:51:06;;;;;;;15.00;8.50;;;;;;;19.39;45.03;100799.94;5085202;28;20054;-69
2022/11/15 02:53:50;;;;;;;14.75;7.90;;;;;;;19.44;44.79;100794.94;5086643;28;20099;-69
2022/11/15 02:56:34;;;;;;;13.27;7.82;;;;;;;19.35;45.13;100798.63;5087547;28;20096;-68
2022/11/15 02:59:52;;;;;;;13.90;8.00;;;;;;;19.41;44.74;100797.13;5085935;28;20059;-69
2022/11/15 03:02:39;;;;;;;13.95;8.38;;;;;;;19.29;45.03;100802.81;5086578;28;20135;-68
2022/11/15 03:05:43;;;;;;;14.75;8.57;;;;;;;19.43;44.82;100797.75;5089581;28;20074;-69
2022/11/15 03:08:58;;;;;;;12.77;8.40;;;;;;;19.44;44.85;100796.75;5087928;28;20980;-69
2022/11/15 03:11:50;;;;;;;13.43;8.35;;;;;;;19.31;45.08;100792.06;5084574;28;20093;-69
2022/11/15 03:14:49;;;;;;;14.02;8.30;;;;;;;19.38;44.92;100790.34;5084292;28;20047;-69
2022/11/15 03:17:43;;;;;;;14.00;7.95;;;;;;;19.34;45.09;100789.06;5088531;28;20054;-69
2022/11/15 03:20:28;;;;;;;12.57;8.35;;;;;;;19.33;45.20;100779.50;5086259;28;20051;-68
2022/11/15 03:23:13;;;;;;;13.23;7.60;;;;;;;19.44;44.99;100781.72;5074096;28;20108;-69
2022/11/15 03:26:00;;;;;;;13.65;8.35;;;;;;;19.42;44.78;100780.28;5089277;28;20046;-69
2022/11/15 03:28:54;;;;;;;11.90;7.13;;;;;;;19.54;44.59;100777.03;5080616;28;20034;-69
2022/11/15 03:31:47;;;;;;;11.88;7.55;;;;;;;19.38;44.98;100781.59;5088824;28;20070;-69
2022/11/15 03:34:55;;;;;;;13.02;8.40;;;;;;;19.34;45.07;100778.50;5087436;28;20042;-69
2022/11/15 03:37:42;;;;;;;12.77;8.07;;;;;;;19.35;45.01;100771.41;5084114;28;20046;-68
2022/11/15 03:40:38;;;;;;;11.45;7.82;;;;;;;19.37;45.06;100774.69;5086098;28;20034;-69
2022/11/15 03:43:51;;;;;;;15.20;8.75;;;;;;;19.26;45.31;100765.38;5084776;28;20528;-69
2022/11/15 03:46:56;;;;;;;14.38;8.05;;;;;;;19.29;45.14;100783.50;5088316;28;20396;-69
2022/11/15 03:49:46;;;;;;;14.18;7.25;;;;;;;19.36;45.07;100768.59;5079351;28;20130;-69
2022/11/15 03:52:33;;;;;;;11.82;7.65;;;;;;;19.36;45.01;100771.22;5080691;28;20046;-69
2022/11/15 03:55:20;;;;;;;10.80;6.57;;;;;;;19.30;45.27;100756.09;5086815;28;20066;-68
2022/11/15 03:58:04;;;;;;;13.93;7.50;;;;;;;19.26;45.17;100760.09;5081013;28;20039;-69
2022/11/15 04:00:48;;;;;;;14.73;7.32;;;;;;;19.37;44.97;100746.47;5088377;28;20058;-69
2022/11/15 04:03:32;;;;;;;14.65;8.25;;;;;;;19.38;44.90;100755.19;5085547;28;20089;-69
2022/11/15 04:06:16;;;;;;;13.52;8.18;;;;;;;19.37;45.08;100748.28;5089552;28;20127;-69
2022/11/15 04:09:00;;;;;;;15.80;8.43;;;;;;;19.35;44.92;100745.81;5089916;28;20565;-70
2022/11/15 04:11:44;;;;;;;13.95;8.07;;;;;;;19.29;45.26;100747.34;5090608;28;20058;-71
2022/11/15 04:14:28;;;;;;;11.15;7.55;;;;;;;19.24;45.39;100755.00;5094702;28;20074;-71
2022/11/15 04:17:12;;;;;;;12.98;8.27;;;;;;;19.32;45.11;100749.63;5088961;28;20512;-69
2022/11/15 04:26:19;;;;;;;13.30;7.60;;;;;;;19.44;45.18;100741.31;5092424;28;20043;-68
2022/11/15 04:32:06;;;;;;;14.13;7.90;;;;;;;19.41;44.99;100753.03;5088058;28;20946;-69
2022/11/15 04:34:51;;;;;;;13.63;7.82;;;;;;;19.39;44.97;100749.78;5090835;28;20042;-69
2022/11/15 04:37:35;;;;;;;13.48;8.00;;;;;;;19.28;45.15;100752.81;5096188;28;20055;-68
2022/11/15 04:40:19;;;;;;;13.63;7.72;;;;;;;19.39;44.98;100754.19;5094711;28;21938;-69
2022/11/15 04:43:04;;;;;;;15.52;8.32;;;;;;;19.35;45.14;100753.75;5092701;28;20223;-69
2022/11/15 04:45:48;;;;;;;15.32;7.88;;;;;;;19.30;45.20;100742.91;5095360;28;20433;-69
2022/11/15 04:48:31;;;;;;;14.40;7.78;;;;;;;19.25;45.35;100756.63;5092336;28;20115;-69
2022/11/15 04:51:16;;;;;;;16.85;9.27;;;;;;;19.21;45.50;100751.88;5084777;28;20042;-69
2022/11/15 04:54:00;;;;;;;13.35;7.78;;;;;;;19.35;45.04;100750.28;5090527;28;20132;-69
2022/11/15 04:56:44;;;;;;;18.08;8.50;;;;;;;19.30;45.23;100734.97;5085789;28;20177;-70
2022/11/15 04:59:28;;;;;;;13.98;7.55;;;;;;;19.36;45.09;100742.19;5086626;28;20078;-69
2022/11/15 05:02:12;;;;;;;15.30;7.55;;;;;;;19.32;45.11;100747.00;5087674;28;20063;-69
2022/11/15 05:04:56;;;;;;;12.95;7.75;;;;;;;19.28;45.21;100743.09;5090664;28;20059;-69
2022/11/15 05:07:40;;;;;;;13.63;7.88;;;;;;;19.33;45.19;100737.25;5088773;28;20039;-69
2022/11/15 05:10:24;;;;;;;11.60;7.18;;;;;;;19.37;45.04;100740.34;5087130;28;20050;-69
2022/11/15 05:13:08;;;;;;;11.65;7.70;;;;;;;19.36;45.16;100738.72;5085823;28;20067;-70
2022/11/15 05:15:52;;;;;;;13.00;7.63;;;;;;;19.28;45.27;100734.34;5085092;28;20172;-69
2022/11/15 05:18:36;;;;;;;12.35;7.57;;;;;;;19.37;44.97;100733.25;5089952;28;20066;-69
2022/11/15 05:21:20;;;;;;;15.43;7.75;;;;;;;19.36;45.00;100742.19;5085142;28;20058;-68
2022/11/15 05:24:05;;;;;;;15.90;7.82;;;;;;;19.35;45.24;100737.06;5089674;28;20066;-69
2022/11/15 05:26:49;;;;;;;11.50;7.70;;;;;;;19.19;45.40;100738.84;5088308;27;20105;-69
2022/11/15 05:29:33;;;;;;;14.30;7.30;;;;;;;19.33;45.14;100740.72;5088695;28;20106;-69
2022/11/15 05:32:17;;;;;;;12.98;7.30;;;;;;;19.13;45.55;100744.03;5082970;28;20136;-69
2022/11/15 05:35:02;;;;;;;14.48;7.55;;;;;;;19.23;45.42;100736.69;5085839;28;20055;-69
2022/11/15 05:37:47;;;;;;;12.18;7.55;;;;;;;19.25;45.29;100738.16;5087180;28;20074;-69
2022/11/15 05:40:33;;;;;;;13.93;8.35;;;;;;;19.32;45.32;100738.25;5087021;28;20625;-69
2022/11/15 05:43:17;;;;;;;12.85;8.02;;;;;;;19.39;45.07;100730.44;5084219;28;20058;-70
2022/11/15 05:46:03;;;;;;;12.77;7.80;;;;;;;19.28;45.23;100721.97;5085214;28;20193;-69
2022/11/15 05:48:50;;;;;;;12.48;8.00;;;;;;;19.24;45.44;100730.41;5088351;28;20055;-69
2022/11/15 05:51:34;;;;;;;15.07;7.85;;;;;;;19.33;45.27;100726.69;5085323;28;20043;-69
2022/11/15 05:54:20;;;;;;;14.18;7.95;;;;;;;19.25;45.49;100724.97;5084481;28;20116;-69
2022/11/15 05:57:04;;;;;;;15.40;8.40;;;;;;;19.31;45.28;100733.97;5086292;28;20063;-69
2022/11/15 05:59:48;;;;;;;12.13;8.05;;;;;;;19.17;45.46;100729.47;5086468;28;20599;-69
2022/11/15 06:02:32;;;;;;;14.55;8.90;;;;;;;19.31;45.58;100739.25;5087279;28;20657;-69
2022/11/15 06:05:16;;;;;;;13.43;8.32;;;;;;;19.33;45.38;100743.34;5093604;28;20108;-69
2022/11/15 06:08:01;;;;;;;16.42;8.60;;;;;;;19.43;45.01;100735.19;5088444;28;20055;-69
2022/11/15 06:10:45;;;;;;;13.93;7.93;;;;;;;19.39;45.11;100744.50;5082695;28;20078;-69
2022/11/15 06:13:28;;;;;;;16.73;8.15;;;;;;;19.28;45.29;100750.19;5087690;28;20050;-68
2022/11/15 06:16:12;;;;;;;15.35;8.82;;;;;;;19.23;45.44;100748.09;5086107;28;20171;-68
2022/11/15 06:18:56;;;;;;;13.05;7.20;;;;;;;19.21;45.67;100746.59;5080187;28;20075;-69
2022/11/15 06:21:40;;;;;;;11.75;7.53;;;;;;;19.18;45.58;100752.22;5083377;28;20059;-69
2022/11/15 06:24:24;;;;;;;13.93;8.02;;;;;;;19.22;45.53;100751.72;5083226;28;20073;-69
2022/11/15 06:27:08;;;;;;;14.70;7.65;;;;;;;19.28;45.35;100755.47;5087103;28;20050;-69
2022/11/15 06:29:52;;;;;;;15.23;7.93;;;;;;;19.30;45.20;100762.19;5084676;28;20117;-69
2022/11/15 06:32:36;;;;;;;13.27;7.50;;;;;;;19.23;45.64;100761.28;5089073;28;20849;-69
2022/11/15 06:35:20;;;;;;;15.88;8.70;;;;;;;19.28;45.38;100766.84;5088527;28;20061;-69
2022/11/15 06:38:07;;;;;;;13.77;7.78;;;;;;;19.27;45.50;100759.91;5084935;28;20093;-69
2022/11/15 06:40:51;;;;;;;14.20;7.93;;;;;;;19.37;45.14;100761.47;5091184;28;20082;-70
2022/11/15 06:43:36;;;;;;;17.23;8.00;;;;;;;19.24;45.52;100762.91;5082517;28;20054;-70
2022/11/15 06:46:20;;;;;;;14.57;8.35;;;;;;;19.30;45.29;100769.31;5090838;28;20053;-70
2022/11/15 06:49:04;;;;;;;14.25;8.07;;;;;;;19.28;45.37;100768.66;5087129;28;20051;-69
2022/11/15 06:51:48;;;;;;;15.40;8.15;;;;;;;19.28;45.58;100764.19;5091442;28;20094;-69
2022/11/15 06:54:32;;;;;;;11.45;7.47;;;;;;;19.28;45.37;100768.66;5090382;28;20504;-69
2022/11/15 06:57:16;;;;;;;15.07;7.32;;;;;;;19.28;45.39;100773.94;5090516;28;20058;-69
2022/11/15 07:00:00;;;;;;;14.85;8.10;;;;;;;19.25;45.53;100769.03;5088205;28;20417;-69
2022/11/15 07:02:45;;;;;;;13.60;7.82;;;;;;;19.25;45.42;100782.22;5091292;28;20054;-68
2022/11/15 07:05:29;;;;;;;14.07;7.72;;;;;;;19.30;45.34;100778.03;5084381;28;20058;-69
2022/11/15 07:08:14;;;;;;;15.60;8.68;;;;;;;19.30;45.37;100778.03;5086578;28;20401;-69
2022/11/15 07:11:00;;;;;;;16.25;8.85;;;;;;;19.24;45.55;100783.22;5081272;28;20058;-69
2022/11/15 07:13:44;;;;;;;12.50;7.95;;;;;;;19.26;45.40;100784.69;5085526;28;20115;-69
2022/11/15 07:16:28;;;;;;;14.90;8.30;;;;;;;19.28;45.57;100781.88;5081149;28;20070;-69
2022/11/15 07:19:13;;;;;;;11.82;7.57;;;;;;;19.26;45.55;100782.03;5084384;28;20050;-69
2022/11/15 07:21:57;;;;;;;12.98;8.23;;;;;;;19.28;45.51;100789.78;5082109;28;20127;-69
2022/11/15 07:24:41;;;;;;;15.00;8.23;;;;;;;19.21;45.56;100780.91;5081923;28;20125;-69
2022/11/15 07:27:25;;;;;;;12.23;7.43;;;;;;;19.21;45.68;100799.38;5087254;28;20050;-69
2022/11/15 07:30:09;;;;;;;13.82;7.70;;;;;;;19.31;45.42;100790.25;5084324;28;20059;-70
2022/11/15 07:32:58;;;;;;;12.32;7.38;;;;;;;19.35;45.42;100796.00;5085949;28;20167;-69
2022/11/15 07:35:43;;;;;;;12.52;8.07;;;;;;;19.30;45.45;100796.53;5082861;28;20055;-69
2022/11/15 07:38:28;;;;;;;11.73;7.85;;;;;;;19.23;45.68;100795.59;5093413;28;20055;-68
2022/11/15 07:41:13;;;;;;;13.35;8.35;;;;;;;19.25;45.55;100804.16;5088706;28;20097;-68
2022/11/15 07:43:57;;;;;;;19.10;8.23;;;;;;;19.18;45.83;100797.94;5086976;28;20461;-69
2022/11/15 07:46:41;;;;;;;15.35;8.52;;;;;;;19.29;45.60;100807.25;5091790;28;20054;-69
2022/11/15 07:49:25;;;;;;;14.68;7.05;;;;;;;19.22;45.68;100808.97;5088974;28;20124;-69
2022/11/15 07:52:09;;;;;;;13.82;7.47;;;;;;;19.27;45.75;100807.44;5092756;27;20587;-70
2022/11/15 07:54:53;;;;;;;11.60;6.97;;;;;;;19.25;45.85;100805.97;5089447;28;20047;-70
2022/11/15 07:57:37;;;;;;;16.85;8.80;;;;;;;19.28;45.67;100805.63;5092135;28;20132;-69
2022/11/15 08:00:21;;;;;;;12.93;7.28;;;;;;;19.20;45.94;100795.09;5089555;28;20666;-70
2022/11/15 08:03:06;;;;;;;13.25;7.30;;;;;;;19.31;45.60;100798.16;5097368;28;20050;-70
2022/11/15 08:05:51;;;;;;;13.43;7.97;;;;;;;19.29;45.76;100794.88;5091529;28;20451;-70
2022/11/15 08:08:35;;;;;;;11.60;7.43;;;;;;;19.32;45.52;100799.81;5091064;28;20097;-70
2022/11/15 08:11:19;;;;;;;12.43;8.00;;;;;;;19.37;45.56;100807.19;5094972;28;20070;-69
2022/11/15 08:14:03;;;;;;;12.25;7.63;;;;;;;19.25;45.80;100808.63;5091229;28;20081;-70
2022/11/15 08:16:47;;;;;;;11.55;7.40;;;;;;;19.22;45.88;100806.34;5090808;28;20055;-70
2022/11/15 08:19:31;;;;;;;16.33;7.90;;;;;;;19.38;45.43;100798.28;5091766;28;20058;-70
2022/11/15 08:22:15;;;;;;;12.68;7.13;;;;;;;19.26;45.82;100789.13;5091495;28;20101;-70
2022/11/15 08:24:59;;;;;;;12.52;7.55;;;;;;;19.31;45.67;100789.41;5100121;28;20108;-69
2022/11/15 08:27:44;;;;;;;10.80;7.38;;;;;;;19.27;45.83;100788.13;5096233;28;20570;-70
2022/11/15 08:30:28;;;;;;;15.98;7.70;;;;;;;19.28;45.77;100793.25;5097393;28;20509;-69
2022/11/15 08:33:13;;;;;;;14.75;7.93;;;;;;;19.28;45.76;100797.69;5093894;28;20062;-70
2022/11/15 08:35:59;;;;;;;15.70;7.82;;;;;;;19.25;45.85;100796.25;5097897;28;20124;-70
2022/11/15 08:38:44;;;;;;;11.35;7.55;;;;;;;19.18;45.93;100787.38;5089527;28;20042;-70
2022/11/15 08:41:32;;;;;;;11.32;7.28;;;;;;;19.18;45.91;100784.72;5098248;28;20047;-70
2022/11/15 08:44:17;;;;;;;16.05;8.02;;;;;;;19.31;45.59;100792.88;5095186;28;20104;-70
2022/11/15 08:47:01;;;;;;;11.88;7.20;;;;;;;19.24;45.86;100788.50;5092329;28;20585;-70
2022/11/15 08:49:45;;;;;;;12.70;7.03;;;;;;;19.25;45.86;100788.31;5091800;28;20550;-70
2022/11/15 08:52:29;;;;;;;11.93;7.10;;;;;;;19.39;45.54;100786.75;5099702;28;20046;-70
2022/11/15 08:55:13;;;;;;;12.13;6.90;;;;;;;19.25;45.74;100785.69;5098318;28;20081;-70
2022/11/15 08:57:57;;;;;;;11.27;7.10;;;;;;;19.17;45.94;100777.81;5091203;28;20054;-70
2022/11/15 09:00:42;;;;;;;14.13;7.28;;;;;;;19.28;45.76;100779.22;5094296;28;20124;-69
2022/11/15 09:03:26;;;;;;;14.15;7.88;;;;;;;19.29;45.72;100771.13;5099096;28;20067;-70
2022/11/15 09:06:10;;;;;;;14.13;8.25;;;;;;;19.26;45.78;100768.03;5112398;27;20054;-69
2022/11/15 09:08:54;;;;;;;11.68;7.55;;;;;;;19.29;45.85;100773.75;5092096;28;20125;-69
2022/11/15 09:11:38;;;;;;;11.40;7.28;;;;;;;19.19;45.98;100769.72;5088076;28;20062;-69
2022/11/15 09:14:22;;;;;;;11.30;6.90;;;;;;;19.28;45.74;100766.84;5093185;28;20500;-69
2022/11/15 09:17:09;;;;;;;11.90;6.85;;;;;;;19.17;46.07;100761.16;5090075;28;20058;-70
2022/11/15 09:19:59;;;;;;;12.60;7.78;;;;;;;19.27;45.93;100761.75;5090626;28;20063;-69
2022/11/15 09:22:43;;;;;;;;;;;;;;;19.18;45.97;100763.59;5090049;28;20127;-68
2022/11/15 09:25:28;;;;;;;13.30;7.75;;;;;;;19.18;46.17;100762.78;5088739;28;19930;-68
2022/11/15 09:28:12;;;;;;;11.10;7.50;;;;;;;19.21;46.05;100759.78;5089010;28;20404;-69
2022/11/15 09:30:58;;;;;;;14.65;8.15;;;;;;;19.32;45.86;100757.56;5094341;28;20581;-69
2022/11/15 09:33:46;;;;;;;9.77;7.05;;;;;;;19.27;45.87;100759.09;5091783;28;20494;-70
2022/11/15 09:36:29;;;;;;;12.85;7.28;;;;;;;19.35;45.85;100750.28;5091893;28;20789;-69
2022/11/15 09:39:13;;;;;;;11.85;7.05;;;;;;;19.29;45.91;100770.31;5092465;28;20439;-69
2022/11/15 09:42:50;;;;;;;13.50;7.43;;;;;;;19.24;46.05;100767.38;5092036;28;20054;-70
2022/11/15 09:45:55;;;;;;;11.73;7.40;;;;;;;19.26;45.92;100757.47;5052116;28;20053;-71
2022/11/15 09:48:56;;;;;;;13.63;7.57;;;;;;;19.30;45.97;100749.00;5088690;28;20040;-69
2022/11/15 09:51:58;;;;;;;13.02;7.70;;;;;;;19.21;46.20;100757.16;5078706;28;20052;-69
2022/11/15 09:54:41;;;;;;;12.48;6.80;;;;;;;19.27;46.02;100762.56;5098332;28;20044;-69
2022/11/15 09:57:29;;;;;;;10.40;6.05;;;;;;;19.39;45.65;100759.47;5091473;28;20027;-69
2022/11/15 10:00:17;;;;;;;10.57;6.40;;;;;;;19.31;45.95;100757.75;5089257;28;20036;-68
2022/11/15 10:03:04;;;;;;;9.88;6.65;;;;;;;19.26;45.99;100760.91;5101146;28;20031;-69
2022/11/15 10:05:31;;;;;;;12.07;6.72;;;;;;;19.26;46.05;100755.63;5092171;28;20042;-69
2022/11/15 10:08:32;;;;;;;13.57;6.53;;;;;;;19.27;46.10;100751.19;5089318;28;20046;-68
2022/11/15 10:11:02;;;;;;;13.30;6.40;;;;;;;19.31;45.90;100739.25;5073037;28;20047;-69
2022/11/15 10:13:34;;;;;;;10.38;6.20;;;;;;;19.23;46.02;100747.25;5092892;28;20035;-69
2022/11/15 10:16:18;;;;;;;11.52;6.93;;;;;;;19.30;45.98;100740.25;5092594;28;20378;-69
2022/11/15 10:18:49;;;;;;;9.40;6.50;;;;;;;19.26;46.23;100737.16;5092248;28;20631;-69
2022/11/15 10:21:39;;;;;;;9.20;6.45;;;;;;;19.37;45.84;100732.44;5090448;28;20035;-68
2022/11/15 10:24:12;;;;;;;10.82;6.63;;;;;;;19.25;45.99;100724.13;5087936;28;20495;-68
2022/11/15 10:26:39;;;;;;;10.57;6.22;;;;;;;19.27;46.02;100728.25;5090535;28;20023;-68
2022/11/15 10:29:05;;;;;;;12.32;6.35;;;;;;;19.34;45.87;100725.69;5088180;28;20372;-68
2022/11/15 10:31:30;;;;;;;10.75;7.00;;;;;;;19.27;45.99;100728.25;5088223;28;20036;-68
2022/11/15 10:34:13;;;;;;;9.90;7.15;;;;;;;19.37;45.74;100720.06;5091276;28;20036;-69
2022/11/15 10:36:38;;;;;;;9.40;6.32;;;;;;;19.31;46.00;100711.03;5093151;28;20042;-69
2022/11/15 10:39:04;;;;;;;11.77;6.88;;;;;;;19.31;46.05;100715.50;5093078;28;20032;-70
2022/11/15 10:41:34;;;;;;;12.10;7.05;;;;;;;19.49;45.60;100717.81;5087400;28;21307;-69
2022/11/15 10:44:18;;;;;;;10.00;6.78;;;;;;;19.33;46.18;100713.50;5088162;28;20777;-68
2022/11/15 10:46:48;;;;;;;9.90;6.63;;;;;;;19.23;46.40;100707.66;5089178;28;20035;-68
2022/11/15 10:49:25;;;;;;;14.15;7.00;;;;;;;19.21;46.42;100714.91;5087637;28;20036;-68
2022/11/15 10:52:17;;;;;;;10.80;6.30;;;;;;;19.20;46.34;100706.16;5090755;28;20043;-68
2022/11/15 10:54:47;;;;;;;12.13;6.65;;;;;;;19.26;46.45;100702.03;5090354;28;20568;-67
2022/11/15 10:57:23;;;;;;;12.43;6.75;;;;;;;19.20;46.38;100702.72;5087791;28;20043;-68
2022/11/15 10:59:55;;;;;;;9.52;5.93;;;;;;;19.16;46.75;100691.69;5092474;28;20647;-68
2022/11/15 11:02:29;;;;;;;10.23;6.55;;;;;;;19.23;46.37;100691.81;5091581;28;20721;-68
2022/11/15 11:04:55;;;;;;;10.40;6.25;;;;;;;19.25;46.39;100689.81;5088315;28;20078;-68
2022/11/15 11:07:31;;;;;;;10.93;6.20;;;;;;;19.27;46.25;100693.09;5091450;28;20019;-68
2022/11/15 11:10:03;;;;;;;8.82;5.85;;;;;;;19.21;46.63;100691.16;5093900;28;20981;-68
2022/11/15 11:12:32;;;;;;;9.88;5.78;;;;;;;19.25;46.38;100693.28;5086366;28;20168;-68
2022/11/15 11:15:12;;;;;;;10.02;6.60;;;;;;;19.25;46.50;100690.63;5088777;28;20038;-68
2022/11/15 11:17:55;;;;;;;12.25;6.45;;;;;;;19.20;46.63;100692.16;5092379;28;20039;-68
2022/11/15 11:20:36;;;;;;;8.95;6.38;;;;;;;19.28;46.39;100679.72;5090183;28;20099;-68
2022/11/15 11:23:48;;;;;;;9.30;5.82;;;;;;;19.16;46.79;100686.41;5087366;28;20110;-68
2022/11/15 11:26:44;;;;;;;8.82;6.80;;;;;;;19.27;46.49;100680.72;5073988;28;20059;-68
2022/11/15 11:29:25;;;;;;;11.77;6.72;;;;;;;19.20;46.37;100671.03;5090534;28;20047;-67
2022/11/15 11:32:09;;;;;;;9.40;6.03;;;;;;;19.27;46.52;100677.25;5095848;28;20115;-68
2022/11/15 11:34:52;;;;;;;10.07;5.80;;;;;;;19.29;46.43;100675.25;5094039;28;20054;-68
2022/11/15 11:37:29;;;;;;;10.40;5.97;;;;;;;19.19;46.77;100667.56;5087278;28;20050;-68
2022/11/15 11:40:16;;;;;;;8.93;5.45;;;;;;;19.27;46.62;100672.81;5085895;28;20595;-68
2022/11/15 11:43:01;;;;;;;10.48;6.65;;;;;;;19.35;46.56;100671.88;5089773;28;20579;-68
2022/11/15 11:45:35;;;;;;;10.00;6.15;;;;;;;19.31;46.71;100666.16;5090222;28;20435;-68
2022/11/15 11:48:21;;;;;;;8.52;5.80;;;;;;;19.32;46.67;100669.59;5090450;28;20020;-68
2022/11/15 11:50:47;;;;;;;7.55;5.38;;;;;;;19.37;46.54;100658.50;5090917;28;20055;-68
2022/11/15 11:53:25;;;;;;;10.68;6.28;;;;;;;19.43;46.43;100661.25;5093234;28;20708;-68
2022/11/15 11:55:57;;;;;;;7.25;4.88;;;;;;;19.32;46.69;100666.97;5091588;28;20028;-68
2022/11/15 11:58:38;;;;;;;9.38;5.32;;;;;;;19.24;46.93;100661.78;5089893;28;20188;-68
2022/11/15 12:01:12;;;;;;;8.73;5.40;;;;;;;19.23;46.76;100665.44;5093870;28;20385;-69
2022/11/15 12:03:44;;;;;;;8.48;5.38;;;;;;;19.36;46.49;100657.69;5088864;28;20055;-68
2022/11/15 12:06:22;;;;;;;7.47;5.25;;;;;;;19.37;46.64;100659.31;5072731;28;20043;-68
2022/11/15 12:08:57;;;;;;;10.45;5.65;;;;;;;19.44;46.48;100665.53;5092859;28;20023;-68
2022/11/15 12:11:50;;;;;;;9.00;5.25;;;;;;;19.31;46.68;100674.06;5089952;28;20039;-68
2022/11/15 12:14:42;;;;;;;8.57;5.22;;;;;;;19.40;46.54;100666.09;5082638;28;20149;-68
2022/11/15 12:17:11;;;;;;;;;;;;;;;19.30;46.74;100661.88;5083977;28;20032;-68
2022/11/15 12:19:37;;;;;;;8.48;5.43;;;;;;;19.21;46.92;100662.13;5083947;28;19967;-67
2022/11/15 12:22:12;;;;;;;11.73;5.10;;;;;;;19.30;46.87;100666.34;5080015;28;20468;-68
2022/11/15 12:24:46;;;;;;;7.13;4.75;;;;;;;19.38;46.63;100657.50;5084423;28;20039;-68
2022/11/15 12:27:14;;;;;;;7.13;4.95;;;;;;;19.29;46.85;100651.50;5087387;28;20745;-67
2022/11/15 12:29:53;;;;;;;7.25;4.72;;;;;;;19.35;46.68;100648.13;5090026;28;20046;-68
2022/11/15 12:32:28;;;;;;;7.65;5.07;;;;;;;19.32;46.80;100648.50;5095048;28;20039;-67
2022/11/15 12:34:55;;;;;;;8.55;4.78;;;;;;;19.30;46.73;100638.13;5089159;28;20047;-68
2022/11/15 12:37:34;;;;;;;9.57;4.88;;;;;;;19.33;46.82;100634.28;5099108;28;20067;-68
2022/11/15 12:40:09;;;;;;;6.15;4.32;;;;;;;19.31;46.96;100638.94;5093961;28;20036;-68
2022/11/15 12:42:40;;;;;;;6.65;4.70;;;;;;;19.29;46.91;100631.19;5090976;28;20047;-67
2022/11/15 12:45:37;;;;;;;8.82;4.60;;;;;;;19.28;46.94;100636.66;5087455;28;20030;-68
2022/11/15 12:48:17;;;;;;;6.95;4.93;;;;;;;19.28;46.94;100629.56;5076967;28;20051;-69
2022/11/15 12:50:55;;;;;;;8.73;4.95;;;;;;;19.39;46.70;100625.66;5089780;28;20247;-68
2022/11/15 12:53:23;;;;;;;6.22;4.70;;;;;;;19.35;46.88;100623.53;5084389;28;20043;-68